Time;durP1;ratioP1;P1;durP2;ratioP2;P2;SDS_P1;SDS_P2;PMS_P1;PMS_P2;Temp;Humidity;BMP_temperature;BMP_pressure;BME280_temperature;BME280_humidity;BME280_pressure;Samples;Min_cycle;Max_cycle;Signal;HPM_P1;HPM_P2
2023/01/04 00:02:03;;;;;;;8.82;7.93;;;2.00;99.90;;;;;;5055388;28;20395;-60
2023/01/04 00:04:29;;;;;;;7.72;6.55;;;2.20;99.90;;;;;;5055388;28;20056;-59
2023/01/04 00:06:55;;;;;;;15.30;9.30;;;2.20;99.90;;;;;;5054989;28;20029;-60
2023/01/04 00:09:21;;;;;;;16.67;11.82;;;2.20;99.90;;;;;;5054931;28;20041;-59
2023/01/04 00:11:47;;;;;;;14.38;10.55;;;2.10;99.90;;;;;;5055450;28;20085;-60
2023/01/04 00:14:16;;;;;;;13.38;10.35;;;2.00;99.90;;;;;;5055454;28;20094;-60
2023/01/04 00:16:41;;;;;;;18.65;11.00;;;1.80;99.90;;;;;;5055150;28;20029;-60
2023/01/04 00:19:10;;;;;;;15.60;12.40;;;1.90;99.90;;;;;;5055270;28;20053;-60
2023/01/04 00:21:36;;;;;;;18.30;12.40;;;1.90;99.90;;;;;;5054426;28;20044;-60
2023/01/04 00:24:02;;;;;;;16.52;11.43;;;1.90;99.90;;;;;;5055347;28;20461;-60
2023/01/04 00:26:32;;;;;;;14.93;10.73;;;1.90;99.90;;;;;;5054919;28;20060;-60
2023/01/04 00:29:00;;;;;;;13.52;9.68;;;2.00;99.90;;;;;;5054985;28;20094;-60
2023/01/04 00:31:27;;;;;;;12.68;9.98;;;2.00;99.90;;;;;;5054813;28;20074;-60
2023/01/04 00:33:54;;;;;;;8.65;7.22;;;2.10;99.90;;;;;;5054624;28;20029;-60
2023/01/04 00:36:20;;;;;;;9.02;5.18;;;2.20;99.90;;;;;;5054635;28;20032;-60
2023/01/04 00:38:45;;;;;;;9.02;5.82;;;2.10;99.90;;;;;;5055024;28;20489;-60
2023/01/04 00:41:12;;;;;;;9.00;7.15;;;2.00;99.90;;;;;;5055019;28;20075;-60
2023/01/04 00:43:39;;;;;;;9.38;5.88;;;1.90;99.90;;;;;;5055132;28;20036;-60
2023/01/04 00:46:10;;;;;;;9.77;7.55;;;1.90;99.90;;;;;;5054474;28;20055;-60
2023/01/04 00:48:36;;;;;;;12.98;9.00;;;1.90;99.90;;;;;;5054547;28;20451;-60
2023/01/04 00:51:02;;;;;;;14.60;9.57;;;1.90;99.90;;;;;;5054232;28;20027;-60
2023/01/04 00:53:27;;;;;;;11.30;9.25;;;1.90;99.90;;;;;;5053751;28;20420;-60
2023/01/04 00:55:58;;;;;;;13.43;9.80;;;1.80;99.90;;;;;;5054614;28;20033;-60
2023/01/04 00:58:24;;;;;;;12.13;9.70;;;1.70;99.90;;;;;;5054092;28;20037;-60
2023/01/04 01:00:49;;;;;;;14.25;11.40;;;1.90;99.90;;;;;;5054769;28;20489;-60
2023/01/04 01:03:15;;;;;;;14.13;10.45;;;1.90;99.90;;;;;;5054098;28;20090;-60
2023/01/04 01:05:40;;;;;;;15.68;9.90;;;2.00;99.90;;;;;;5054023;28;20032;-60
2023/01/04 01:08:24;;;;;;;18.58;13.02;;;2.00;99.90;;;;;;5054642;28;20031;-60
2023/01/04 01:10:51;;;;;;;13.15;11.02;;;2.00;99.90;;;;;;5053845;28;20055;-60
2023/01/04 01:13:17;;;;;;;17.50;12.48;;;2.00;99.90;;;;;;5053696;28;20045;-60
2023/01/04 01:15:43;;;;;;;13.90;10.45;;;2.00;99.90;;;;;;5053975;28;20031;-60
2023/01/04 01:18:09;;;;;;;11.50;9.52;;;1.90;99.90;;;;;;5054120;28;20025;-60
2023/01/04 01:20:43;;;;;;;13.50;10.25;;;1.90;99.90;;;;;;5054066;28;20025;-60
2023/01/04 01:23:10;;;;;;;14.07;11.10;;;1.80;99.90;;;;;;5054048;28;20041;-60
2023/01/04 01:25:36;;;;;;;12.80;10.32;;;1.70;99.90;;;;;;5053854;28;20056;-60
2023/01/04 01:28:02;;;;;;;13.55;9.63;;;1.70;99.90;;;;;;5053807;28;20036;-60
2023/01/04 01:30:27;;;;;;;12.23;10.00;;;1.60;99.90;;;;;;5053766;28;20017;-60
2023/01/04 01:32:53;;;;;;;12.65;10.07;;;1.60;99.90;;;;;;5053390;28;20112;-60
2023/01/04 01:35:19;;;;;;;12.00;9.55;;;1.70;99.90;;;;;;5053660;28;20025;-60
2023/01/04 01:37:44;;;;;;;10.43;8.98;;;1.70;99.90;;;;;;5052952;28;20032;-60
2023/01/04 01:40:11;;;;;;;12.23;8.38;;;1.60;99.90;;;;;;5053527;28;20021;-60
2023/01/04 01:42:37;;;;;;;9.77;7.30;;;1.70;99.90;;;;;;5053579;28;20021;-59
2023/01/04 01:45:10;;;;;;;9.93;5.68;;;1.80;99.90;;;;;;5053470;28;20474;-59
2023/01/04 01:47:45;;;;;;;10.00;5.18;;;1.80;99.90;;;;;;5053204;28;20025;-59
2023/01/04 01:50:36;;;;;;;7.72;5.55;;;1.80;99.90;;;;;;5053647;28;20545;-60
2023/01/04 01:53:03;;;;;;;9.27;5.32;;;1.70;99.90;;;;;;5053136;28;20036;-61
2023/01/04 01:55:32;;;;;;;7.70;5.03;;;1.70;99.90;;;;;;5053444;28;20374;-61
2023/01/04 01:58:00;;;;;;;12.20;7.57;;;1.90;99.90;;;;;;5053528;28;20106;-61
2023/01/04 02:00:28;;;;;;;15.95;9.05;;;2.00;99.90;;;;;;5053181;28;20021;-61
2023/01/04 02:03:13;;;;;;;20.52;12.73;;;1.90;99.90;;;;;;5053100;28;20498;-61
2023/01/04 02:05:38;;;;;;;21.58;14.40;;;1.80;99.90;;;;;;5052258;28;20017;-61
2023/01/04 02:08:05;;;;;;;21.92;14.32;;;1.90;99.90;;;;;;5053092;28;20025;-61
2023/01/04 02:10:31;;;;;;;22.00;14.70;;;1.80;99.90;;;;;;5053185;28;20053;-61
2023/01/04 02:13:01;;;;;;;22.65;13.52;;;1.70;99.90;;;;;;5053092;28;20082;-61
2023/01/04 02:15:34;;;;;;;19.63;12.48;;;1.70;99.90;;;;;;5052953;28;20068;-60
2023/01/04 02:18:09;;;;;;;15.85;10.32;;;1.80;99.90;;;;;;5052591;28;20159;-61
2023/01/04 02:20:55;;;;;;;14.05;8.55;;;1.80;99.90;;;;;;5052855;28;20526;-61
2023/01/04 02:23:47;;;;;;;10.93;7.90;;;1.70;99.90;;;;;;5052834;28;20091;-61
2023/01/04 02:26:16;;;;;;;9.57;5.18;;;1.80;99.90;;;;;;5052531;28;20114;-61
2023/01/04 02:29:06;;;;;;;11.10;5.05;;;1.60;99.90;;;;;;5052571;28;20032;-61
2023/01/04 02:31:43;;;;;;;9.93;4.47;;;1.60;99.90;;;;;;5052401;28;20028;-61
2023/01/04 02:34:15;;;;;;;8.77;4.80;;;1.60;99.90;;;;;;5052641;28;20025;-60
2023/01/04 02:37:07;;;;;;;8.98;4.68;;;1.70;99.90;;;;;;5052719;28;20021;-60
2023/01/04 02:40:21;;;;;;;8.98;4.80;;;1.60;99.90;;;;;;5052600;28;20028;-60
2023/01/04 02:46:03;;;;;;;8.57;5.15;;;1.80;99.90;;;;;;5051713;28;20060;-61
2023/01/04 02:51:28;;;;;;;7.90;5.00;;;1.60;99.90;;;;;;5052595;28;20083;-60
2023/01/04 02:53:57;;;;;;;8.75;4.80;;;1.60;99.90;;;;;;5052359;28;20025;-61
2023/01/04 02:56:34;;;;;;;9.30;4.78;;;1.70;99.90;;;;;;5052346;28;20047;-60
2023/01/04 02:59:27;;;;;;;7.28;4.93;;;1.70;99.90;;;;;;5052212;28;20027;-61
2023/01/04 03:08:38;;;;;;;18.20;9.85;;;1.80;99.90;;;;;;5030022;28;20555;-61
2023/01/04 03:14:12;;;;;;;12.35;7.10;;;2.30;99.90;;;;;;5030427;28;20072;-61
2023/01/04 03:16:41;;;;;;;13.40;7.28;;;2.30;99.90;;;;;;5029650;28;20072;-61
2023/01/04 03:19:09;;;;;;;15.23;6.95;;;2.40;99.90;;;;;;5029930;28;20151;-61
2023/01/04 03:21:39;;;;;;;15.15;7.45;;;2.50;99.90;;;;;;5029982;28;20449;-61
2023/01/04 03:35:54;;;;;;;16.90;7.90;;;3.10;99.90;;;;;;5030105;28;20433;-60
2023/01/04 03:50:37;;;;;;;15.00;7.72;;;3.30;99.90;;;;;;5032177;28;20036;-60
2023/01/04 03:53:04;;;;;;;18.98;8.85;;;3.10;99.90;;;;;;5031942;28;20053;-60
2023/01/04 03:55:32;;;;;;;15.20;7.90;;;3.10;99.90;;;;;;5031698;28;20029;-60
2023/01/04 03:57:58;;;;;;;12.23;7.93;;;3.20;99.90;;;;;;5030173;28;20367;-60
2023/01/04 04:00:24;;;;;;;18.48;8.45;;;3.20;99.90;;;;;;5031797;28;20094;-60
2023/01/04 04:02:50;;;;;;;14.70;8.25;;;3.30;99.90;;;;;;5031601;28;20025;-60
2023/01/04 04:10:51;;;;;;;17.52;8.57;;;3.30;99.90;;;;;;5044166;28;20056;-60
2023/01/04 04:13:17;;;;;;;23.75;9.90;;;3.40;99.90;;;;;;5051184;28;20492;-60
2023/01/04 04:15:43;;;;;;;17.50;8.95;;;3.30;99.90;;;;;;5051844;28;20025;-60
2023/01/04 04:18:08;;;;;;;17.13;8.60;;;3.40;99.90;;;;;;5051471;28;20070;-60
2023/01/04 04:20:34;;;;;;;13.20;7.30;;;3.50;99.90;;;;;;5051435;28;20017;-60
2023/01/04 04:23:00;;;;;;;17.02;8.88;;;3.50;99.90;;;;;;5051490;28;20031;-60
2023/01/04 04:25:26;;;;;;;16.33;8.80;;;3.60;99.90;;;;;;5051023;28;20039;-61
2023/01/04 04:27:52;;;;;;;18.73;9.50;;;3.60;99.90;;;;;;5052741;28;20025;-61
2023/01/04 04:30:17;;;;;;;17.52;9.82;;;3.60;99.90;;;;;;5035237;28;20393;-60
2023/01/04 04:32:43;;;;;;;17.05;10.25;;;3.50;99.90;;;;;;5033751;28;20037;-60
2023/01/04 04:35:09;;;;;;;19.08;10.77;;;3.30;99.90;;;;;;5035172;28;20440;-60
2023/01/04 04:37:36;;;;;;;18.05;10.18;;;3.50;99.90;;;;;;5035221;28;20021;-60
2023/01/04 04:40:05;;;;;;;21.30;11.52;;;3.40;99.90;;;;;;5034758;28;20021;-60
2023/01/04 04:42:30;;;;;;;16.10;10.18;;;3.60;99.90;;;;;;5034540;28;20036;-60
2023/01/04 04:44:56;;;;;;;22.10;11.30;;;3.60;99.90;;;;;;5034787;28;20101;-60
2023/01/04 04:47:22;;;;;;;21.90;11.82;;;3.50;99.90;;;;;;5034830;28;20048;-60
2023/01/04 04:49:47;;;;;;;20.25;11.30;;;3.60;99.90;;;;;;5035131;28;20030;-60
2023/01/04 04:52:13;;;;;;;19.05;10.50;;;3.50;99.90;;;;;;5034551;28;20406;-61
2023/01/04 04:54:39;;;;;;;21.58;11.35;;;3.40;99.90;;;;;;5034545;28;20025;-60
2023/01/04 04:57:05;;;;;;;20.77;10.98;;;3.40;99.90;;;;;;5034280;28;20036;-60
2023/01/04 04:59:31;;;;;;;24.50;11.52;;;3.40;99.90;;;;;;5034935;28;20363;-60
2023/01/04 05:01:56;;;;;;;21.02;11.05;;;3.40;99.90;;;;;;5034055;28;20031;-60
2023/01/04 05:04:22;;;;;;;23.02;10.55;;;3.30;99.90;;;;;;5034460;28;20029;-60
2023/01/04 05:06:51;;;;;;;18.00;10.20;;;3.30;99.90;;;;;;5034358;28;20033;-60
2023/01/04 05:09:17;;;;;;;19.00;10.18;;;3.10;99.90;;;;;;5034376;28;20045;-60
2023/01/04 05:14:27;;;;;;;20.60;11.38;;;3.00;99.90;;;;;;5054160;28;20452;-60
2023/01/04 05:16:53;;;;;;;22.88;13.15;;;3.10;99.90;;;;;;5054253;28;20024;-60
2023/01/04 05:19:19;;;;;;;29.42;14.45;;;3.30;99.90;;;;;;5054112;28;20108;-60
2023/01/04 05:21:44;;;;;;;33.30;16.52;;;3.50;99.90;;;;;;5054447;28;20079;-60
2023/01/04 05:24:11;;;;;;;31.55;16.17;;;3.50;99.90;;;;;;5053889;28;20025;-60
2023/01/04 05:26:37;;;;;;;29.55;15.50;;;3.50;99.90;;;;;;5053474;28;20065;-60
2023/01/04 05:29:03;;;;;;;32.40;16.17;;;3.60;99.90;;;;;;5053809;28;20025;-60
2023/01/04 05:31:29;;;;;;;28.92;16.73;;;3.70;99.90;;;;;;5053873;28;20025;-60
2023/01/04 05:33:54;;;;;;;31.45;16.67;;;3.70;99.90;;;;;;5054146;28;20021;-60
2023/01/04 05:36:20;;;;;;;26.05;15.00;;;3.60;99.90;;;;;;5054086;28;20068;-60
2023/01/04 05:38:46;;;;;;;36.03;18.60;;;3.70;99.90;;;;;;5053358;28;20021;-60
2023/01/04 05:44:00;;;;;;;26.05;17.02;;;3.70;99.90;;;;;;5051210;28;20432;-61
2023/01/04 05:46:26;;;;;;;27.90;17.00;;;3.70;99.90;;;;;;5051752;28;20051;-60
2023/01/04 05:48:52;;;;;;;33.30;18.70;;;3.60;99.90;;;;;;5051297;28;20033;-60
2023/01/04 05:51:17;;;;;;;46.10;20.88;;;3.70;99.90;;;;;;5051149;28;20044;-60
2023/01/04 05:53:43;;;;;;;38.38;20.92;;;3.60;99.90;;;;;;5050887;28;20040;-60
2023/01/04 05:56:09;;;;;;;35.03;21.60;;;3.70;99.90;;;;;;5051089;28;20503;-60
2023/01/04 05:58:34;;;;;;;37.88;20.98;;;3.70;99.90;;;;;;5051243;28;20025;-60
2023/01/04 06:01:00;;;;;;;35.28;21.63;;;3.80;99.90;;;;;;5051647;28;20045;-60
2023/01/04 06:03:26;;;;;;;36.70;23.30;;;3.80;99.90;;;;;;5050784;28;20100;-60
2023/01/04 06:05:52;;;;;;;36.30;22.58;;;3.90;99.90;;;;;;5050924;28;20043;-60
2023/01/04 06:08:18;;;;;;;45.08;26.42;;;4.00;99.90;;;;;;5050708;28;20032;-60
2023/01/04 06:10:44;;;;;;;36.15;23.88;;;4.10;99.90;;;;;;5050402;28;20528;-60
2023/01/04 06:13:09;;;;;;;35.15;23.88;;;4.20;99.90;;;;;;5051245;28;20051;-60
2023/01/04 06:15:35;;;;;;;38.78;24.67;;;4.20;99.90;;;;;;5050719;28;20045;-60
2023/01/04 06:18:01;;;;;;;36.65;24.25;;;4.30;99.90;;;;;;5050774;28;20032;-61
2023/01/04 06:20:26;;;;;;;39.65;25.08;;;4.40;99.90;;;;;;5051768;28;20048;-60
2023/01/04 06:22:52;;;;;;;38.03;27.23;;;4.40;99.90;;;;;;5052795;28;20065;-60
2023/01/04 06:25:18;;;;;;;34.80;22.48;;;4.50;99.90;;;;;;5053101;28;20028;-60
2023/01/04 06:27:43;;;;;;;36.28;24.13;;;4.50;99.90;;;;;;5052433;28;20025;-61
2023/01/04 06:30:09;;;;;;;35.90;22.52;;;4.50;99.90;;;;;;5052568;28;20154;-60
2023/01/04 06:32:35;;;;;;;33.42;21.13;;;4.50;99.90;;;;;;5052681;28;20096;-60
2023/01/04 06:35:01;;;;;;;34.58;22.90;;;4.60;99.90;;;;;;5052963;28;20032;-60
2023/01/04 06:37:26;;;;;;;27.48;20.45;;;4.70;99.90;;;;;;5051131;28;20025;-60
2023/01/04 06:39:52;;;;;;;32.60;22.30;;;4.70;99.90;;;;;;5052571;28;20470;-60
2023/01/04 06:45:03;;;;;;;27.80;20.17;;;4.70;99.90;;;;;;5052755;28;20028;-60
2023/01/04 06:47:28;;;;;;;29.38;20.55;;;4.80;99.90;;;;;;5052529;28;20029;-60
2023/01/04 06:49:54;;;;;;;30.33;20.70;;;4.70;99.90;;;;;;5052041;28;20021;-61
2023/01/04 06:52:20;;;;;;;26.35;20.02;;;4.80;99.90;;;;;;5052199;28;20029;-61
2023/01/04 06:54:45;;;;;;;29.45;20.25;;;4.80;99.90;;;;;;5052359;28;20049;-61
2023/01/04 06:57:11;;;;;;;29.02;20.73;;;4.80;99.90;;;;;;5052340;28;20021;-60
2023/01/04 06:59:37;;;;;;;30.75;21.20;;;4.80;99.90;;;;;;5052175;28;20489;-60
2023/01/04 07:02:03;;;;;;;29.17;21.60;;;4.80;99.90;;;;;;5052475;28;20508;-61
2023/01/04 07:04:28;;;;;;;28.25;20.30;;;4.80;99.90;;;;;;5052037;28;20115;-61
2023/01/04 07:06:54;;;;;;;30.75;21.15;;;4.80;99.90;;;;;;5051676;28;20032;-61
2023/01/04 07:09:20;;;;;;;26.55;20.23;;;4.90;99.90;;;;;;5051767;28;20047;-60
2023/01/04 07:11:46;;;;;;;30.80;21.05;;;4.90;99.90;;;;;;5052079;28;20036;-60
2023/01/04 07:14:11;;;;;;;27.52;21.13;;;4.90;99.90;;;;;;5051971;28;20150;-60
2023/01/04 07:16:37;;;;;;;29.75;21.38;;;4.90;99.90;;;;;;5052368;28;20061;-60
2023/01/04 07:19:03;;;;;;;26.50;19.23;;;4.90;99.90;;;;;;5051913;28;20032;-60
2023/01/04 07:21:28;;;;;;;28.45;20.75;;;4.90;99.90;;;;;;5050321;28;20032;-60
2023/01/04 07:23:54;;;;;;;33.97;22.17;;;4.90;99.90;;;;;;5052299;28;20099;-60
2023/01/04 07:26:20;;;;;;;30.33;22.63;;;4.90;99.90;;;;;;5051731;28;20413;-61
2023/01/04 07:31:30;;;;;;;34.78;23.23;;;4.90;99.90;;;;;;5052109;28;20095;-61
2023/01/04 07:33:56;;;;;;;32.03;21.67;;;4.90;99.90;;;;;;5051670;28;20049;-60
2023/01/04 07:36:21;;;;;;;30.73;22.27;;;4.90;99.90;;;;;;5051645;28;20033;-60
2023/01/04 07:38:47;;;;;;;29.38;20.80;;;4.90;99.90;;;;;;5052033;28;20047;-60
2023/01/04 07:41:13;;;;;;;29.58;21.67;;;5.00;99.90;;;;;;5051797;28;20025;-60
2023/01/04 07:43:38;;;;;;;31.33;22.02;;;5.00;99.90;;;;;;5051663;28;20100;-60
2023/01/04 07:46:04;;;;;;;30.33;22.38;;;5.00;99.90;;;;;;5051688;28;20484;-60
2023/01/04 07:48:30;;;;;;;35.28;23.08;;;5.00;99.90;;;;;;5051725;28;20025;-60
2023/01/04 07:50:56;;;;;;;29.50;21.80;;;4.90;99.90;;;;;;5051589;28;20056;-60
2023/01/04 07:53:21;;;;;;;30.67;22.27;;;5.00;99.90;;;;;;5051674;28;20021;-60
2023/01/04 07:55:47;;;;;;;31.17;21.35;;;5.10;99.90;;;;;;5051743;28;20444;-60
2023/01/04 07:58:13;;;;;;;31.27;21.42;;;5.00;99.90;;;;;;5051622;28;20025;-60
2023/01/04 08:00:38;;;;;;;34.78;22.70;;;5.00;99.90;;;;;;5050806;28;20026;-60
2023/01/04 08:03:04;;;;;;;27.33;19.70;;;5.00;99.90;;;;;;5054758;28;20032;-60
2023/01/04 08:05:33;;;;;;;28.48;20.00;;;5.00;99.90;;;;;;5055097;28;20497;-60
2023/01/04 08:08:00;;;;;;;29.75;20.67;;;5.00;99.90;;;;;;5055420;28;20402;-61
2023/01/04 08:10:26;;;;;;;25.67;18.98;;;5.00;99.90;;;;;;5055358;28;20570;-60
2023/01/04 08:12:51;;;;;;;28.85;20.17;;;5.00;99.90;;;;;;5055305;28;20033;-60
2023/01/04 08:15:18;;;;;;;28.48;19.02;;;5.00;99.90;;;;;;5055161;28;20028;-60
2023/01/04 08:17:44;;;;;;;33.22;20.30;;;5.00;99.90;;;;;;5055208;28;20527;-60
2023/01/04 08:20:10;;;;;;;30.08;20.20;;;5.10;99.90;;;;;;5054845;28;20021;-60
2023/01/04 08:22:36;;;;;;;28.80;20.60;;;5.10;99.90;;;;;;5055194;28;20025;-60
2023/01/04 08:25:01;;;;;;;26.63;18.50;;;5.20;99.90;;;;;;5055516;28;20068;-60
2023/01/04 08:27:27;;;;;;;31.80;26.10;;;5.30;99.90;;;;;;5055252;28;20033;-60
2023/01/04 08:29:53;;;;;;;29.10;22.77;;;5.60;99.90;;;;;;5055023;28;20473;-60
2023/01/04 08:32:18;;;;;;;23.48;17.80;;;5.70;99.90;;;;;;5055226;28;20060;-60
2023/01/04 08:34:44;;;;;;;27.00;19.30;;;5.70;99.90;;;;;;5054631;28;20044;-61
2023/01/04 08:37:10;;;;;;;22.83;17.48;;;5.80;99.90;;;;;;5054878;28;20057;-61
2023/01/04 08:39:35;;;;;;;24.52;19.40;;;5.80;99.90;;;;;;5054801;28;20032;-60
2023/01/04 08:42:02;;;;;;;26.65;22.17;;;5.90;99.90;;;;;;5054785;28;20028;-60
2023/01/04 08:44:27;;;;;;;24.55;19.77;;;5.90;99.90;;;;;;5054815;28;20036;-60
2023/01/04 08:46:54;;;;;;;24.13;17.88;;;5.90;99.90;;;;;;5054758;28;20033;-61
2023/01/04 08:49:21;;;;;;;23.63;17.42;;;5.80;99.90;;;;;;5054005;28;20020;-60
2023/01/04 08:51:47;;;;;;;21.95;16.73;;;5.70;99.90;;;;;;5054667;28;20142;-61
2023/01/04 08:54:13;;;;;;;20.88;15.82;;;5.80;99.90;;;;;;5055016;28;20017;-60
2023/01/04 08:56:39;;;;;;;20.40;15.55;;;6.00;99.90;;;;;;5054617;28;20052;-60
2023/01/04 08:59:05;;;;;;;18.02;14.98;;;6.10;99.90;;;;;;5054619;28;20458;-60
2023/01/04 09:01:33;;;;;;;22.73;15.70;;;6.10;99.90;;;;;;5053650;28;20036;-61
2023/01/04 09:03:58;;;;;;;19.40;15.80;;;6.10;99.90;;;;;;5054084;28;20025;-61
2023/01/04 09:06:24;;;;;;;20.58;14.90;;;6.10;99.90;;;;;;5054059;28;20500;-61
2023/01/04 09:08:51;;;;;;;20.00;14.30;;;6.40;99.90;;;;;;5054186;28;20424;-61
2023/01/04 09:11:20;;;;;;;17.77;14.18;;;6.60;99.90;;;;;;5053961;28;20092;-60
2023/01/04 09:13:46;;;;;;;15.90;13.30;;;6.70;99.90;;;;;;5053664;28;20474;-60
2023/01/04 09:16:15;;;;;;;16.73;12.98;;;6.70;99.90;;;;;;5054337;28;20493;-61
2023/01/04 09:18:41;;;;;;;14.80;12.57;;;7.20;99.90;;;;;;5053838;28;20032;-61
2023/01/04 09:21:12;;;;;;;15.43;12.38;;;7.30;99.90;;;;;;5053928;28;20029;-61
2023/01/04 09:23:39;;;;;;;16.60;12.27;;;7.20;99.90;;;;;;5054453;28;20025;-60
2023/01/04 09:26:17;;;;;;;13.45;11.45;;;7.20;99.90;;;;;;5053994;28;20151;-61
2023/01/04 09:28:43;;;;;;;13.82;11.75;;;7.30;99.90;;;;;;5053643;28;20112;-61
2023/01/04 09:31:12;;;;;;;13.90;11.65;;;7.40;99.90;;;;;;5053789;28;20052;-60
2023/01/04 09:33:37;;;;;;;14.68;11.77;;;7.40;99.90;;;;;;5054022;28;20016;-61
2023/01/04 09:36:06;;;;;;;17.60;11.43;;;7.50;99.90;;;;;;5054180;28;20513;-60
2023/01/04 09:38:33;;;;;;;14.13;11.13;;;8.00;99.90;;;;;;5054008;28;20111;-61
2023/01/04 09:41:27;;;;;;;14.20;11.43;;;8.10;99.90;;;;;;5053608;28;20443;-61
2023/01/04 09:44:00;;;;;;;15.23;11.30;;;8.00;99.90;;;;;;5053749;28;20044;-61
2023/01/04 09:46:53;;;;;;;15.80;12.00;;;8.20;99.90;;;;;;5053568;28;20119;-60
2023/01/04 09:49:28;;;;;;;12.85;10.13;;;8.00;99.90;;;;;;5054031;28;20435;-61
2023/01/04 09:52:08;;;;;;;14.80;10.77;;;8.20;99.90;;;;;;5053475;28;20039;-61
2023/01/04 09:54:59;;;;;;;13.52;10.48;;;8.40;99.90;;;;;;5053637;28;20025;-61
2023/01/04 09:57:35;;;;;;;13.20;10.50;;;8.50;99.90;;;;;;5054054;28;20025;-61
2023/01/04 10:00:23;;;;;;;13.10;10.20;;;9.30;99.90;;;;;;5054180;28;20027;-61
2023/01/04 10:03:12;;;;;;;12.30;9.90;;;10.80;99.90;;;;;;5053370;28;20013;-61
2023/01/04 10:05:39;;;;;;;12.02;9.98;;;10.50;99.90;;;;;;5054371;28;20048;-61
2023/01/04 10:08:14;;;;;;;12.73;9.68;;;10.20;99.90;;;;;;5053335;28;20040;-61
2023/01/04 10:10:58;;;;;;;11.30;9.43;;;10.20;99.90;;;;;;5052937;28;20386;-60
2023/01/04 10:13:38;;;;;;;11.63;9.35;;;10.10;99.90;;;;;;5053568;28;20157;-61
2023/01/04 10:16:19;;;;;;;17.77;14.68;;;10.10;99.90;;;;;;5052806;28;20035;-61
2023/01/04 10:19:14;;;;;;;18.13;14.00;;;10.30;99.90;;;;;;5053667;28;20025;-61
2023/01/04 10:22:01;;;;;;;13.98;10.18;;;10.90;99.90;;;;;;5053362;28;20032;-61
2023/01/04 10:24:41;;;;;;;11.57;9.60;;;11.80;99.90;;;;;;5053407;28;20067;-61
2023/01/04 10:27:17;;;;;;;12.00;9.40;;;11.30;99.90;;;;;;5052447;28;20059;-61
2023/01/04 10:30:21;;;;;;;11.73;8.48;;;11.00;99.90;;;;;;5052456;28;20025;-60
2023/01/04 10:33:09;;;;;;;12.45;9.35;;;10.90;99.90;;;;;;5052484;28;20482;-60
2023/01/04 10:35:35;;;;;;;11.75;8.48;;;10.60;99.90;;;;;;5052817;28;20051;-61
2023/01/04 10:38:03;;;;;;;11.02;8.40;;;10.50;99.90;;;;;;5052799;28;20417;-59
2023/01/04 10:40:34;;;;;;;11.55;8.75;;;10.40;99.90;;;;;;5052707;28;20075;-61
2023/01/04 10:43:38;;;;;;;9.35;7.95;;;10.30;99.90;;;;;;5052577;28;20032;-62
2023/01/04 10:46:04;;;;;;;8.70;7.03;;;10.20;99.90;;;;;;5053367;28;20039;-61
2023/01/04 10:48:57;;;;;;;11.18;7.15;;;10.30;99.90;;;;;;5052817;28;20452;-61
2023/01/04 10:51:59;;;;;;;11.95;8.20;;;10.30;99.90;;;;;;5049752;28;20041;-61
2023/01/04 10:54:49;;;;;;;7.63;6.70;;;10.40;99.90;;;;;;5030310;28;20549;-60
2023/01/04 10:57:22;;;;;;;10.35;7.13;;;10.30;99.90;;;;;;5030987;28;20144;-61
2023/01/04 11:00:08;;;;;;;11.38;6.97;;;10.40;99.90;;;;;;5030292;28;20076;-61
2023/01/04 11:02:53;;;;;;;9.95;6.65;;;10.50;99.90;;;;;;5030460;28;20160;-61
2023/01/04 11:05:24;;;;;;;9.50;6.70;;;10.40;99.90;;;;;;5029969;28;20569;-61
2023/01/04 11:08:02;;;;;;;7.88;5.85;;;10.80;99.90;;;;;;5029790;28;20502;-62
2023/01/04 11:10:32;;;;;;;9.43;6.40;;;11.10;99.90;;;;;;5029941;28;20043;-61
2023/01/04 11:12:57;;;;;;;8.55;5.63;;;11.00;99.90;;;;;;5028427;28;20033;-61
2023/01/04 11:15:23;;;;;;;12.85;6.47;;;11.20;99.90;;;;;;5028799;28;20036;-61
2023/01/04 11:17:50;;;;;;;8.55;5.95;;;11.40;99.90;;;;;;5029846;28;20042;-61
2023/01/04 11:20:17;;;;;;;9.73;6.90;;;11.40;99.90;;;;;;5030108;28;20029;-61
2023/01/04 11:23:00;;;;;;;10.43;6.40;;;11.30;99.90;;;;;;5028488;28;20093;-62
2023/01/04 11:28:16;;;;;;;6.13;4.90;;;11.70;99.90;;;;;;5760803;22;20102;-66
2023/01/04 11:31:07;;;;;;;6.53;4.85;;;11.60;99.90;;;;;;5042723;28;20038;-66
2023/01/04 11:33:55;;;;;;;7.93;5.10;;;11.60;99.90;;;;;;5034455;28;20034;-65
2023/01/04 11:36:30;;;;;;;6.75;4.30;;;11.80;99.90;;;;;;5032070;28;20026;-66
2023/01/04 11:38:57;;;;;;;7.45;6.75;;;11.90;99.90;;;;;;5037145;28;20025;-66
2023/01/04 11:41:24;;;;;;;8.85;5.00;;;12.40;99.90;;;;;;5035710;28;20559;-65
2023/01/04 11:43:57;;;;;;;7.88;4.72;;;12.20;99.90;;;;;;5035963;28;20029;-65
2023/01/04 11:46:24;;;;;;;7.25;4.07;;;12.30;99.90;;;;;;5036649;28;20033;-66
2023/01/04 11:48:50;;;;;;;5.45;4.18;;;12.20;99.90;;;;;;5036164;28;20040;-66
2023/01/04 11:51:28;;;;;;;6.47;4.43;;;12.20;99.90;;;;;;5035738;28;20033;-66
2023/01/04 11:54:19;;;;;;;5.60;4.25;;;12.30;99.90;;;;;;5035844;28;20496;-65
2023/01/04 11:56:58;;;;;;;6.93;3.70;;;12.40;99.90;;;;;;5028740;28;20088;-65
2023/01/04 11:59:24;;;;;;;5.40;3.90;;;12.20;99.90;;;;;;5034911;28;20064;-65
2023/01/04 12:01:51;;;;;;;4.97;4.00;;;12.20;99.90;;;;;;5036139;28;20095;-65
2023/01/04 12:04:23;;;;;;;6.35;4.18;;;12.40;99.90;;;;;;5036424;28;20037;-66
2023/01/04 12:07:34;;;;;;;5.90;4.03;;;12.30;99.90;;;;;;5035424;28;20068;-66
2023/01/04 12:10:11;;;;;;;6.03;3.72;;;12.40;99.90;;;;;;5013354;28;20081;-66
2023/01/04 12:12:38;;;;;;;5.28;3.83;;;12.30;99.90;;;;;;5013682;28;20030;-66
2023/01/04 12:15:15;;;;;;;7.13;3.90;;;12.40;99.90;;;;;;5012895;28;20040;-66
2023/01/04 12:18:03;;;;;;;19.00;16.98;;;12.70;99.90;;;;;;5013217;28;20041;-66
2023/01/04 12:20:29;;;;;;;7.05;4.72;;;13.10;99.90;;;;;;5013312;28;20168;-66
2023/01/04 12:22:54;;;;;;;6.10;4.25;;;13.20;99.90;;;;;;5013818;28;20121;-66
2023/01/04 12:25:37;;;;;;;5.68;3.70;;;13.30;99.90;;;;;;5013168;28;20148;-66
2023/01/04 12:28:03;;;;;;;4.95;3.42;;;13.40;99.90;;;;;;5012504;28;20058;-66
2023/01/04 12:30:38;;;;;;;5.00;4.47;;;13.60;99.90;;;;;;5021377;28;20037;-66
2023/01/04 12:33:29;;;;;;;5.43;3.88;;;13.70;99.90;;;;;;5033219;28;20037;-66
2023/01/04 12:36:01;;;;;;;6.03;4.78;;;13.60;99.90;;;;;;5032732;28;20036;-66
2023/01/04 12:38:58;;;;;;;7.28;3.20;;;13.50;99.90;;;;;;5032586;28;20033;-66
2023/01/04 12:42:02;;;;;;;4.60;3.33;;;13.60;99.90;;;;;;5032740;28;20571;-66
2023/01/04 12:44:45;;;;;;;5.38;2.92;;;13.50;99.90;;;;;;5034922;28;20033;-66
2023/01/04 12:50:09;;;;;;;4.07;3.33;;;14.10;99.90;;;;;;5054267;28;20064;-67
2023/01/04 12:52:56;;;;;;;6.30;3.47;;;14.10;99.90;;;;;;5054553;28;20055;-67
2023/01/04 12:55:52;;;;;;;4.50;3.97;;;14.20;99.90;;;;;;5054607;28;20075;-67
2023/01/04 12:58:27;;;;;;;4.50;3.83;;;14.30;99.90;;;;;;5050526;28;20405;-67
2023/01/04 13:00:52;;;;;;;5.40;3.83;;;14.40;99.90;;;;;;5054643;28;20111;-67
2023/01/04 13:03:18;;;;;;;4.18;3.05;;;14.30;99.90;;;;;;5054542;28;20069;-67
2023/01/04 13:05:59;;;;;;;5.68;3.45;;;14.50;99.90;;;;;;5054131;28;20028;-67
2023/01/04 13:08:26;;;;;;;6.32;3.03;;;14.60;99.90;;;;;;5054536;28;20485;-67
2023/01/04 13:10:55;;;;;;;7.95;4.60;;;14.60;99.90;;;;;;5054243;28;20036;-67
2023/01/04 13:13:41;;;;;;;7.70;3.80;;;14.70;99.90;;;;;;5053812;28;20021;-67
2023/01/04 13:16:10;;;;;;;7.70;5.75;;;14.70;99.90;;;;;;5054284;28;20017;-67
2023/01/04 13:18:40;;;;;;;6.97;4.28;;;14.60;99.90;;;;;;5053938;28;20040;-67
2023/01/04 13:21:11;;;;;;;6.47;4.70;;;14.50;99.90;;;;;;5054572;28;20029;-66
2023/01/04 13:23:38;;;;;;;4.45;3.22;;;14.50;99.90;;;;;;5053995;28;20104;-67
2023/01/04 13:26:32;;;;;;;5.13;2.65;;;14.30;99.90;;;;;;5053600;28;20087;-67
2023/01/04 13:29:14;;;;;;;5.03;2.60;;;14.20;99.90;;;;;;5053742;28;20416;-67
2023/01/04 13:31:58;;;;;;;4.68;2.55;;;14.10;99.90;;;;;;5054155;28;20025;-67
2023/01/04 13:34:32;;;;;;;3.67;2.45;;;14.10;99.90;;;;;;5053791;28;20484;-67
2023/01/04 13:37:12;;;;;;;4.13;2.63;;;14.10;99.90;;;;;;5053956;28;20029;-67
2023/01/04 13:40:03;;;;;;;5.82;2.90;;;14.20;99.90;;;;;;5053691;28;20393;-67
2023/01/04 13:42:37;;;;;;;5.55;3.22;;;14.50;99.90;;;;;;5048263;28;20041;-67
2023/01/04 13:45:34;;;;;;;5.60;4.18;;;14.50;99.90;;;;;;5054002;28;20025;-67
2023/01/04 13:48:03;;;;;;;5.07;3.10;;;14.50;99.90;;;;;;5053470;28;20037;-67
2023/01/04 13:50:32;;;;;;;4.00;2.38;;;14.20;99.90;;;;;;5053575;28;20063;-67
2023/01/04 13:52:58;;;;;;;5.70;3.45;;;14.20;99.90;;;;;;5053410;28;20033;-67
2023/01/04 13:55:27;;;;;;;4.30;3.78;;;14.20;99.90;;;;;;5053060;28;20067;-66
2023/01/04 13:58:04;;;;;;;4.05;2.85;;;14.20;99.90;;;;;;5053365;28;20036;-67
2023/01/04 14:00:53;;;;;;;4.75;2.53;;;14.20;99.90;;;;;;5053438;28;20447;-67
2023/01/04 14:03:42;;;;;;;5.45;2.65;;;14.30;99.90;;;;;;5011402;28;20071;-67